Time;durP1;ratioP1;P1;durP2;ratioP2;P2;SDS_P1;SDS_P2;PMS_P1;PMS_P2;Temp;Humidity;BMP_temperature;BMP_pressure;BME280_temperature;BME280_humidity;BME280_pressure;Samples;Min_cycle;Max_cycle;Signal;HPM_P1;HPM_P2
2022/11/11 07:06:25;;;;;;;13.77;10.57;;;;;;;8.20;100.00;102721.28;5278643;28;20395;-76
2022/11/11 07:08:56;;;;;;;16.65;11.18;;;;;;;8.22;100.00;102721.09;5267882;28;20029;-76
2022/11/11 07:11:28;;;;;;;12.55;10.38;;;;;;;8.21;100.00;102724.94;5258956;28;20025;-76
2022/11/11 07:13:59;;;;;;;12.88;10.40;;;;;;;8.16;100.00;102724.78;5270632;28;20043;-76
2022/11/11 07:16:33;;;;;;;14.05;10.07;;;;;;;8.20;100.00;102724.06;5261736;28;20018;-76
2022/11/11 07:19:04;;;;;;;10.98;9.80;;;;;;;8.20;100.00;102723.22;5255802;28;20061;-76
2022/11/11 07:21:36;;;;;;;13.05;10.25;;;;;;;8.26;100.00;102731.47;5254936;28;20025;-76
2022/11/11 07:24:07;;;;;;;12.32;10.90;;;;;;;8.35;100.00;102732.00;5259587;28;20021;-77
2022/11/11 07:26:38;;;;;;;13.07;10.57;;;;;;;8.45;99.98;102745.31;5260550;28;20076;-77
2022/11/11 07:29:11;;;;;;;12.43;10.50;;;;;;;8.47;99.74;102745.94;5248825;28;20103;-77
2022/11/11 07:31:42;;;;;;;13.48;10.55;;;;;;;8.41;99.07;102753.25;5256186;28;20418;-76
2022/11/11 07:34:14;;;;;;;12.45;10.40;;;;;;;8.51;99.64;102749.09;5249750;28;20079;-75
2022/11/11 07:36:45;;;;;;;13.45;9.30;;;;;;;8.64;99.91;102746.16;5244866;28;20053;-80
2022/11/11 07:39:16;;;;;;;16.13;12.05;;;;;;;8.54;99.04;102745.84;5241282;28;20025;-82
2022/11/11 07:41:48;;;;;;;11.13;9.95;;;;;;;8.53;98.55;102747.78;5238736;28;20103;-79
2022/11/11 07:44:22;;;;;;;12.20;10.00;;;;;;;8.56;98.87;102754.78;5238021;28;20465;-80
2022/11/11 07:46:54;;;;;;;15.05;11.15;;;;;;;8.56;98.82;102755.63;5247884;28;20013;-80
2022/11/11 07:49:25;;;;;;;10.70;9.55;;;;;;;8.69;97.98;102751.84;5246062;28;20088;-81
2022/11/11 07:51:59;;;;;;;11.23;10.02;;;;;;;8.58;97.91;102753.47;5243400;28;20041;-81
2022/11/11 07:54:31;;;;;;;13.00;9.80;;;;;;;8.64;97.78;102762.75;5238432;28;20480;-80
2022/11/11 07:57:02;;;;;;;14.63;11.43;;;;;;;8.63;98.10;102761.09;5237595;28;20061;-80
2022/11/11 07:59:33;;;;;;;12.25;10.20;;;;;;;8.53;97.69;102775.44;5239214;28;20040;-79
2022/11/11 08:02:06;;;;;;;11.02;9.75;;;;;;;8.61;97.44;102774.28;5238934;28;20048;-79
2022/11/11 08:04:38;;;;;;;11.10;10.10;;;;;;;8.57;97.70;102784.16;5249139;28;20053;-81
2022/11/11 08:07:09;;;;;;;14.80;10.77;;;;;;;8.55;96.90;102778.81;5237542;28;20028;-79
2022/11/11 08:09:40;;;;;;;10.60;9.50;;;;;;;8.62;97.60;102789.84;5247670;28;20023;-80
2022/11/11 08:15:02;;;;;;;11.13;9.80;;;;;;;8.67;96.47;102796.38;5238452;28;20400;-79
2022/11/11 08:17:41;;;;;;;11.10;10.00;;;;;;;8.75;96.88;102797.16;5224833;28;20033;-81
2022/11/11 08:20:12;;;;;;;13.60;9.95;;;;;;;8.75;96.61;102797.97;5223477;28;20018;-80
2022/11/11 08:22:44;;;;;;;11.40;9.98;;;;;;;8.76;96.49;102796.91;5224370;28;20029;-81
2022/11/11 08:25:15;;;;;;;11.60;9.10;;;;;;;8.85;96.40;102802.97;5224523;28;20049;-78
2022/11/11 08:27:46;;;;;;;10.70;7.93;;;;;;;9.05;98.33;102803.59;5225052;28;20025;-75
2022/11/11 08:30:18;;;;;;;47.40;12.43;;;;;;;8.98;95.92;102811.13;5224145;28;20030;-73
2022/11/11 08:32:56;;;;;;;10.68;7.45;;;;;;;9.40;100.00;102816.75;5223687;28;20051;-71
2022/11/11 08:35:29;;;;;;;12.98;8.95;;;;;;;9.64;100.00;102819.63;5223430;28;20060;-73
2022/11/11 08:38:01;;;;;;;10.77;9.02;;;;;;;9.25;97.59;102813.53;5223613;28;20453;-74
2022/11/11 08:40:33;;;;;;;10.98;8.73;;;;;;;9.28;96.92;102824.16;5223418;28;20038;-73
2022/11/11 08:43:04;;;;;;;11.10;8.07;;;;;;;9.67;99.70;102821.94;5235036;28;20030;-76
2022/11/11 08:45:35;;;;;;;9.98;8.45;;;;;;;9.28;97.32;102829.69;5223448;28;20033;-77
2022/11/11 08:48:10;;;;;;;10.23;8.48;;;;;;;9.22;94.83;102830.63;5240070;28;20037;-78
2022/11/11 08:50:42;;;;;;;9.75;8.55;;;;;;;9.25;94.25;102830.16;5243486;28;20072;-75
2022/11/11 08:53:13;;;;;;;11.05;9.27;;;;;;;9.30;93.73;102830.31;5233869;28;20064;-73
2022/11/11 08:55:45;;;;;;;10.35;8.82;;;;;;;9.30;93.96;102830.31;5222744;28;20041;-79
2022/11/11 08:58:16;;;;;;;11.80;8.57;;;;;;;9.30;93.29;102835.84;5223868;28;20025;-76
2022/11/11 09:00:48;;;;;;;10.65;8.48;;;;;;;9.30;94.10;102838.63;5235410;28;20021;-72
2022/11/11 09:03:19;;;;;;;9.77;7.80;;;;;;;9.35;94.33;102834.06;5243202;28;20035;-68
2022/11/11 09:05:50;;;;;;;8.45;7.65;;;;;;;9.36;93.63;102832.16;5240616;28;20042;-75
2022/11/11 09:08:22;;;;;;;8.55;7.75;;;;;;;9.39;93.26;102825.31;5242527;28;20182;-77
2022/11/11 09:10:53;;;;;;;9.68;7.50;;;;;;;9.40;93.14;102825.06;5243474;28;20174;-76
2022/11/11 09:13:24;;;;;;;8.48;7.50;;;;;;;9.42;92.53;102828.44;5244195;28;20057;-78
2022/11/11 09:15:56;;;;;;;11.02;7.90;;;;;;;9.48;93.06;102834.97;5242945;28;20435;-76
2022/11/11 09:18:30;;;;;;;7.95;7.15;;;;;;;9.43;92.68;102832.91;5224190;28;20053;-76
2022/11/11 09:21:02;;;;;;;8.55;7.22;;;;;;;9.35;92.79;102834.06;5229390;28;20034;-77
2022/11/11 09:23:33;;;;;;;8.18;6.43;;;;;;;9.40;93.49;102827.84;5227267;28;20034;-77
2022/11/11 09:26:05;;;;;;;8.02;6.72;;;;;;;9.45;92.63;102836.28;5222454;28;20040;-80
2022/11/11 09:28:37;;;;;;;7.57;6.78;;;;;;;9.43;92.74;102843.13;5222950;28;20026;-76
2022/11/11 09:31:12;;;;;;;7.55;6.85;;;;;;;9.48;93.07;102833.03;5223173;28;20096;-74
2022/11/11 09:33:43;;;;;;;10.88;6.35;;;;;;;9.48;92.88;102838.59;5227538;28;20032;-76
2022/11/11 09:36:14;;;;;;;7.68;5.78;;;;;;;9.54;92.15;102837.66;5242350;28;20034;-75
2022/11/11 09:38:45;;;;;;;9.30;6.40;;;;;;;9.51;92.28;102840.91;5243372;28;20030;-78
2022/11/11 09:41:31;;;;;;;7.53;6.20;;;;;;;9.56;92.25;102840.19;5243061;28;20025;-75
2022/11/11 09:44:03;;;;;;;7.00;6.30;;;;;;;9.63;92.25;102843.72;5242044;28;20028;-75
2022/11/11 09:46:57;;;;;;;7.35;6.55;;;;;;;9.72;92.74;102849.78;5242475;28;20045;-74
2022/11/11 09:49:55;;;;;;;9.43;7.10;;;;;;;9.73;92.31;102854.22;5235840;28;20022;-72
2022/11/11 09:52:38;;;;;;;8.85;6.93;;;;;;;9.80;91.93;102849.44;5222335;28;20042;-75
2022/11/11 09:55:19;;;;;;;9.07;7.20;;;;;;;9.89;91.42;102853.56;5221811;28;20080;-76
2022/11/11 09:58:04;;;;;;;7.05;6.20;;;;;;;9.97;91.66;102856.00;5221340;28;20063;-76
2022/11/11 10:00:37;;;;;;;6.55;5.88;;;;;;;9.97;90.92;102864.31;5222061;28;20114;-77
2022/11/11 10:03:20;;;;;;;9.77;8.77;;;;;;;9.94;90.31;102853.69;5221696;28;20525;-74
2022/11/11 10:06:02;;;;;;;7.63;6.00;;;;;;;9.98;90.13;102852.16;5220533;28;20049;-74
2022/11/11 10:08:46;;;;;;;8.75;6.22;;;;;;;9.87;90.23;102858.50;5233745;28;20428;-75
2022/11/11 10:11:29;;;;;;;9.63;6.68;;;;;;;9.95;91.42;102847.09;5242069;28;20381;-75
2022/11/11 10:14:01;;;;;;;7.70;6.03;;;;;;;10.02;90.86;102853.38;5239356;28;20029;-77
2022/11/11 10:16:53;;;;;;;16.27;6.85;;;;;;;10.20;92.17;102865.44;5229345;28;20048;-76
2022/11/11 10:19:59;;;;;;;11.63;9.52;;;;;;;10.17;90.25;102857.59;5241435;28;20021;-75
2022/11/11 10:22:37;;;;;;;7.03;6.32;;;;;;;10.11;89.72;102861.34;5230314;28;20416;-74
2022/11/11 10:25:11;;;;;;;6.60;5.93;;;;;;;10.12;89.48;102854.69;5232886;28;20087;-74
2022/11/11 10:27:45;;;;;;;6.90;6.07;;;;;;;10.15;89.75;102855.09;5220815;28;20401;-75
2022/11/11 10:30:28;;;;;;;8.68;6.20;;;;;;;10.29;89.55;102852.97;5221113;28;20022;-76
2022/11/11 10:33:11;;;;;;;6.35;5.63;;;;;;;10.30;89.39;102851.88;5220792;28;20137;-77
2022/11/11 10:35:44;;;;;;;6.68;5.63;;;;;;;10.32;88.93;102857.19;5221735;28;20026;-76
2022/11/11 10:38:37;;;;;;;7.43;5.25;;;;;;;10.42;88.74;102863.81;5226067;28;20113;-78
2022/11/11 10:41:19;;;;;;;5.82;5.20;;;;;;;10.53;88.80;102856.63;5230575;28;20026;-75
2022/11/11 10:43:50;;;;;;;7.85;5.55;;;;;;;10.60;87.92;102860.09;5223790;28;20041;-75
2022/11/11 10:46:37;;;;;;;8.15;5.65;;;;;;;10.66;87.05;102859.16;5220049;28;20038;-76
2022/11/11 10:49:16;;;;;;;7.10;5.93;;;;;;;10.68;87.20;102855.28;5221071;28;20070;-79
2022/11/11 10:51:59;;;;;;;6.55;5.18;;;;;;;10.71;86.61;102865.91;5221116;28;20026;-74
2022/11/11 10:54:39;;;;;;;6.05;4.47;;;;;;;10.68;86.29;102864.44;5238981;28;20365;-76
2022/11/11 10:57:20;;;;;;;7.18;5.60;;;;;;;10.78;85.87;102861.91;5241450;28;20105;-73
2022/11/11 11:00:11;;;;;;;6.50;5.25;;;;;;;10.80;85.61;102856.13;5225795;28;20044;-74
2022/11/11 11:03:03;;;;;;;9.00;4.50;;;;;;;10.91;86.44;102858.03;5262055;28;20021;-74
2022/11/11 11:06:14;;;;;;;6.00;4.00;;;;;;;11.00;85.68;102858.53;5241145;28;20045;-74
2022/11/11 11:08:53;;;;;;;4.50;3.97;;;;;;;11.04;85.30;102857.81;5239697;28;20049;-74
2022/11/11 11:11:32;;;;;;;4.63;3.70;;;;;;;11.12;85.60;102855.72;5241233;28;20487;-74
2022/11/11 11:14:12;;;;;;;5.13;3.95;;;;;;;11.14;84.32;102854.38;5240489;28;20022;-73
2022/11/11 11:16:50;;;;;;;5.28;3.55;;;;;;;11.24;85.03;102843.50;5227757;28;20029;-75
2022/11/11 11:19:24;;;;;;;5.18;3.80;;;;;;;11.30;84.32;102853.63;5220970;28;20523;-74
2022/11/11 11:21:57;;;;;;;3.67;3.15;;;;;;;11.36;84.27;102845.41;5220321;28;20362;-74
2022/11/11 11:24:37;;;;;;;4.28;3.15;;;;;;;11.37;82.98;102847.09;5240899;28;20606;-74
2022/11/11 11:27:08;;;;;;;4.75;3.28;;;;;;;11.43;83.58;102840.56;5241236;28;20025;-74
2022/11/11 11:29:42;;;;;;;4.00;3.10;;;;;;;11.45;82.63;102846.69;5240567;28;20040;-75
2022/11/11 11:32:28;;;;;;;5.03;3.28;;;;;;;11.51;81.93;102848.50;5240203;28;20052;-75
2022/11/11 11:35:01;;;;;;;;;;;;;;;11.58;82.06;102849.19;5236823;28;20030;-72
2022/11/11 11:37:48;;;;;;;4.35;2.90;;;;;;;11.61;82.27;102839.53;5236059;28;19944;-74
2022/11/11 11:40:19;;;;;;;4.15;2.50;;;;;;;11.59;81.55;102842.53;5236542;28;20211;-74
2022/11/11 11:42:53;;;;;;;5.55;3.15;;;;;;;11.61;82.08;102837.59;5239981;28;20540;-74
2022/11/11 11:45:28;;;;;;;4.30;3.70;;;;;;;11.71;82.20;102835.00;5240664;28;20046;-74
2022/11/11 11:48:09;;;;;;;7.28;4.10;;;;;;;11.79;81.55;102841.25;5240846;28;20120;-72
2022/11/11 11:50:49;;;;;;;5.20;2.50;;;;;;;11.81;81.87;102842.69;5239456;28;20033;-73
2022/11/11 11:53:33;;;;;;;3.30;2.33;;;;;;;11.84;81.83;102833.00;5238591;28;20029;-72
2022/11/11 11:56:28;;;;;;;5.15;2.53;;;;;;;11.96;81.22;102833.78;5229399;28;20030;-72
2022/11/11 11:59:13;;;;;;;2.58;1.80;;;;;;;12.03;80.33;102834.47;5237362;28;20121;-71
2022/11/11 12:01:53;;;;;;;6.15;3.80;;;;;;;12.06;80.56;102831.19;5244230;28;20029;-71
2022/11/11 12:04:55;;;;;;;27.70;22.65;;;;;;;12.12;79.74;102832.97;5243336;28;20037;-74
2022/11/11 12:08:07;;;;;;;10.40;8.55;;;;;;;12.20;78.71;102833.66;5233489;28;20025;-73
2022/11/11 12:11:01;;;;;;;7.63;6.82;;;;;;;12.22;78.18;102825.88;5228814;28;20414;-77
2022/11/11 12:13:53;;;;;;;3.40;2.22;;;;;;;12.23;78.37;102833.16;5242354;28;20109;-72
2022/11/11 12:16:47;;;;;;;5.50;2.00;;;;;;;12.27;77.79;102826.84;5237265;28;20485;-74
2022/11/11 12:19:39;;;;;;;3.13;1.60;;;;;;;12.35;77.38;102817.22;5221953;28;20441;-74
2022/11/11 12:22:29;;;;;;;3.08;2.00;;;;;;;12.39;78.10;102813.66;5222619;28;20037;-75
2022/11/11 12:25:17;;;;;;;2.67;1.85;;;;;;;12.40;77.38;102817.31;5223260;28;20069;-77
2022/11/11 12:28:09;;;;;;;2.85;2.58;;;;;;;12.36;77.49;102810.56;5223325;28;20030;-77
2022/11/11 12:30:50;;;;;;;3.17;1.60;;;;;;;12.38;76.78;102809.19;5223608;28;20038;-77
2022/11/11 12:33:46;;;;;;;1.88;1.58;;;;;;;12.41;76.35;102813.41;5221988;28;20026;-77
2022/11/11 12:36:51;;;;;;;3.65;2.00;;;;;;;12.48;76.84;102800.16;5222959;28;20046;-77
2022/11/11 12:39:57;;;;;;;3.38;1.80;;;;;;;12.47;76.67;102803.19;5232710;28;20034;-73
2022/11/11 12:42:47;;;;;;;4.03;1.50;;;;;;;12.53;76.34;102804.97;5225126;28;20034;-77
2022/11/11 12:45:23;;;;;;;2.33;2.13;;;;;;;12.52;76.44;102798.53;5223236;28;20037;-77
2022/11/11 12:47:57;;;;;;;;;;;;;;;12.64;77.98;102800.41;5223502;28;20029;-77
2022/11/11 12:50:55;;;;;;;3.78;2.15;;;;;;;12.68;76.83;102791.28;5222976;28;19913;-79
2022/11/11 12:53:40;;;;;;;4.97;4.10;;;;;;;12.72;77.72;102798.00;5241942;28;20034;-76
2022/11/11 12:56:23;;;;;;;5.40;2.83;;;;;;;12.77;77.68;102800.03;5242884;28;20053;-76
2022/11/11 12:58:58;;;;;;;5.90;2.33;;;;;;;12.78;77.10;102808.13;5223158;28;20026;-76
2022/11/11 13:01:39;;;;;;;2.90;2.20;;;;;;;12.80;77.25;102799.50;5222117;28;20026;-76
2022/11/11 13:04:43;;;;;;;16.73;15.15;;;;;;;12.83;77.32;102794.28;5228196;28;20048;-75
2022/11/11 13:08:18;;;;;;;2.67;1.92;;;;;;;12.89;76.92;102780.44;5242536;28;20061;-77
2022/11/11 13:11:13;;;;;;;3.63;2.40;;;;;;;12.87;76.38;102786.25;5206372;28;20057;-76
2022/11/11 13:13:44;;;;;;;3.03;1.60;;;;;;;12.91;76.31;102784.63;5225493;28;20009;-75
2022/11/11 13:16:21;;;;;;;9.27;8.27;;;;;;;13.00;76.54;102787.81;5224635;28;20473;-76
2022/11/11 13:18:58;;;;;;;4.32;2.10;;;;;;;13.02;77.01;102789.22;5223542;28;20068;-76
2022/11/11 13:22:19;;;;;;;4.10;2.03;;;;;;;13.03;78.44;102788.13;5226851;28;20022;-80
2022/11/11 13:24:53;;;;;;;4.05;3.42;;;;;;;13.01;76.08;102779.19;5224286;28;20046;-73
2022/11/11 13:27:33;;;;;;;2.95;2.05;;;;;;;13.03;76.01;102776.97;5221614;28;20034;-74
2022/11/11 13:30:45;;;;;;;4.90;2.45;;;;;;;13.04;76.21;102784.25;5243098;28;20389;-75
2022/11/11 13:33:23;;;;;;;4.57;2.28;;;;;;;13.05;76.02;102777.56;5227284;28;20030;-74
2022/11/11 13:36:01;;;;;;;20.45;16.45;;;;;;;13.07;76.75;102779.25;5222452;28;20034;-74
2022/11/11 13:38:45;;;;;;;11.07;7.18;;;;;;;13.11;76.34;102777.63;5222621;28;20022;-74
2022/11/11 13:41:26;;;;;;;4.05;2.30;;;;;;;13.07;76.11;102780.09;5223275;28;20023;-75
2022/11/11 13:44:03;;;;;;;3.78;2.22;;;;;;;13.13;76.34;102779.03;5222411;28;20026;-74
2022/11/11 13:46:45;;;;;;;3.88;2.78;;;;;;;13.14;76.16;102783.53;5222689;28;20034;-74
2022/11/11 13:49:35;;;;;;;4.38;2.08;;;;;;;13.12;76.50;102785.72;5222446;28;20025;-72
2022/11/11 13:52:25;;;;;;;5.20;1.85;;;;;;;13.18;76.58;102779.09;5224031;28;20076;-72
2022/11/11 13:55:24;;;;;;;4.03;2.15;;;;;;;13.21;76.67;102780.53;5244140;28;20381;-72
2022/11/11 13:57:56;;;;;;;3.90;2.20;;;;;;;13.20;76.03;102774.13;5242871;28;20075;-72
2022/11/11 14:00:46;;;;;;;5.20;2.13;;;;;;;13.24;76.15;102774.44;5221359;28;20054;-72
2022/11/11 14:03:18;;;;;;;2.40;2.15;;;;;;;13.20;76.14;102776.91;5220887;28;20033;-72
2022/11/11 14:06:15;;;;;;;3.00;2.22;;;;;;;13.28;76.24;102778.41;5220960;28;20054;-72
2022/11/11 14:08:52;;;;;;;4.53;2.50;;;;;;;13.28;76.29;102778.41;5220852;28;20026;-72
2022/11/11 14:11:23;;;;;;;3.10;2.10;;;;;;;13.25;76.45;102781.72;5229523;28;20033;-73
2022/11/11 14:14:16;;;;;;;4.47;2.33;;;;;;;13.33;76.61;102772.91;5241379;28;20032;-72
2022/11/11 14:16:53;;;;;;;4.45;2.15;;;;;;;13.32;77.03;102771.25;5241616;28;20029;-73
2022/11/11 14:19:29;;;;;;;4.10;2.50;;;;;;;13.37;76.53;102782.44;5241925;28;20368;-74
2022/11/11 14:22:02;;;;;;;5.50;2.25;;;;;;;13.37;76.73;102770.44;5241935;28;20072;-74
2022/11/11 14:24:39;;;;;;;4.07;2.20;;;;;;;13.34;77.33;102777.38;5220681;28;20388;-72
2022/11/11 14:27:10;;;;;;;3.10;2.78;;;;;;;13.27;76.25;102776.75;5220818;28;20104;-72
2022/11/11 14:29:53;;;;;;;6.13;3.35;;;;;;;13.30;75.80;102780.97;5221051;28;20026;-72
2022/11/11 14:33:22;;;;;;;5.50;2.53;;;;;;;13.27;76.78;102776.75;5222256;28;20022;-73
2022/11/11 14:36:02;;;;;;;4.90;2.45;;;;;;;13.23;75.47;102770.81;5207721;28;20116;-74
2022/11/11 14:38:45;;;;;;;5.30;2.92;;;;;;;13.27;76.10;102773.97;5196896;28;20046;-78
2022/11/11 14:41:44;;;;;;;8.55;3.10;;;;;;;13.25;76.91;102779.75;5205411;28;20038;-70
2022/11/11 14:44:25;;;;;;;20.70;17.92;;;;;;;13.19;76.70;102778.03;5213706;28;20041;-74
2022/11/11 14:47:05;;;;;;;35.20;31.35;;;;;;;13.17;75.61;102771.88;5240330;28;20042;-77
2022/11/11 14:49:55;;;;;;;4.18;2.90;;;;;;;13.14;75.64;102771.53;5240434;28;20086;-76
2022/11/11 14:52:32;;;;;;;3.40;2.63;;;;;;;13.13;76.40;102769.84;5230907;28;20040;-75
2022/11/11 14:55:30;;;;;;;3.05;2.35;;;;;;;13.14;76.56;102765.94;5221049;28;20473;-76
2022/11/11 14:58:14;;;;;;;6.38;4.75;;;;;;;13.11;76.76;102766.47;5230837;28;20032;-76
2022/11/11 15:00:55;;;;;;;10.90;8.93;;;;;;;13.09;76.64;102768.69;5240851;28;20029;-75
2022/11/11 15:03:36;;;;;;;8.15;6.57;;;;;;;13.07;76.66;102763.38;5241384;28;20071;-74
2022/11/11 15:06:17;;;;;;;8.68;7.50;;;;;;;13.07;77.30;102779.25;5224112;28;20058;-75
2022/11/11 15:09:16;;;;;;;6.97;4.80;;;;;;;13.02;77.27;102772.50;5220432;28;20037;-78
2022/11/11 15:12:16;;;;;;;4.00;3.42;;;;;;;13.01;77.79;102768.06;5220999;28;20022;-75
2022/11/11 15:14:57;;;;;;;4.70;4.20;;;;;;;12.96;78.30;102769.91;5220733;28;20030;-70
2022/11/11 15:17:56;;;;;;;7.60;4.57;;;;;;;12.97;78.14;102769.66;5231644;28;20032;-75
2022/11/11 15:20:48;;;;;;;11.20;6.65;;;;;;;12.95;78.55;102768.25;5231236;28;20474;-75
2022/11/11 15:23:37;;;;;;;10.05;7.25;;;;;;;12.90;78.15;102770.97;5236665;28;20430;-75
2022/11/11 15:26:22;;;;;;;9.70;6.72;;;;;;;12.87;78.96;102777.88;5222687;28;20450;-76
2022/11/11 15:29:15;;;;;;;8.45;6.15;;;;;;;12.80;78.20;102774.44;5223355;28;20038;-76
2022/11/11 15:32:16;;;;;;;10.88;6.30;;;;;;;12.82;78.70;102780.59;5235517;28;20029;-75
2022/11/11 15:35:14;;;;;;;7.35;5.10;;;;;;;12.78;78.65;102779.41;5243646;28;20100;-76
2022/11/11 15:37:51;;;;;;;5.88;3.67;;;;;;;12.73;77.86;102776.56;5245208;28;20028;-76
2022/11/11 15:40:42;;;;;;;6.05;3.60;;;;;;;12.72;78.55;102781.31;5276583;28;20030;-73
2022/11/11 15:43:18;;;;;;;4.85;3.70;;;;;;;12.70;78.91;102783.50;5244198;28;20045;-72
2022/11/11 15:46:00;;;;;;;8.07;3.40;;;;;;;12.57;79.10;102772.72;5245005;28;20036;-72
2022/11/11 15:48:42;;;;;;;5.63;3.60;;;;;;;12.61;79.15;102785.88;5232451;28;20695;-73
2022/11/11 15:51:32;;;;;;;37.15;33.08;;;;;;;12.63;79.14;102788.44;5224922;28;20020;-74
2022/11/11 15:54:21;;;;;;;17.30;12.25;;;;;;;12.55;80.12;102786.06;5224438;28;20061;-73
2022/11/11 15:56:54;;;;;;;7.72;4.97;;;;;;;12.43;79.78;102786.19;5222929;28;20028;-73
2022/11/11 15:59:36;;;;;;;6.78;3.95;;;;;;;12.51;80.73;102779.34;5223844;28;20131;-73
2022/11/11 16:02:23;;;;;;;6.40;3.13;;;;;;;12.49;79.64;102793.50;5224448;28;20022;-73
2022/11/11 16:04:57;;;;;;;5.30;3.08;;;;;;;12.39;80.00;102790.56;5224591;28;20489;-73
2022/11/11 16:07:34;;;;;;;4.38;2.75;;;;;;;12.36;80.01;102791.91;5239725;28;20522;-73
2022/11/11 16:10:24;;;;;;;4.88;2.85;;;;;;;12.38;79.70;102789.72;5225589;28;20031;-71
2022/11/11 16:13:01;;;;;;;6.85;3.33;;;;;;;12.35;80.34;102797.75;5227068;28;20116;-72
2022/11/11 16:15:46;;;;;;;5.60;4.47;;;;;;;12.36;80.12;102793.84;5234259;28;20085;-72
2022/11/11 16:18:25;;;;;;;4.85;2.78;;;;;;;12.36;79.73;102799.41;5238234;28;20081;-73
2022/11/11 16:21:18;;;;;;;4.47;2.67;;;;;;;12.32;80.12;102803.78;5231265;28;20137;-73
2022/11/11 16:23:50;;;;;;;7.50;3.53;;;;;;;12.22;79.75;102798.94;5226211;28;20026;-74
2022/11/11 16:26:23;;;;;;;6.35;3.42;;;;;;;12.23;79.89;102805.34;5243681;28;20117;-73
2022/11/11 16:28:56;;;;;;;9.68;8.10;;;;;;;12.11;80.54;102813.75;5243628;28;20048;-73
2022/11/11 16:31:34;;;;;;;12.15;5.68;;;;;;;12.12;80.74;102810.72;5243251;28;20417;-73
2022/11/11 16:34:23;;;;;;;6.93;4.63;;;;;;;12.17;80.67;102801.63;5243159;28;20083;-68
2022/11/11 16:37:05;;;;;;;9.50;5.03;;;;;;;12.10;80.45;102810.13;5240745;28;20029;-68
